createdAt,value
2023-01-09T00:00:58.641Z,26.95
2023-01-09T00:01:58.729Z,26.97
2023-01-09T00:02:58.573Z,26.97
2023-01-09T00:03:58.588Z,26.94
2023-01-09T00:04:58.529Z,26.94
2023-01-09T00:05:58.448Z,26.97
2023-01-09T00:06:58.398Z,26.97
2023-01-09T00:07:58.370Z,26.91
2023-01-09T00:08:58.331Z,26.97
2023-01-09T00:09:58.294Z,26.97
2023-01-09T00:10:58.259Z,26.93
2023-01-09T00:11:58.209Z,26.97
2023-01-09T00:12:58.173Z,26.94
2023-01-09T00:13:58.130Z,26.99
2023-01-09T00:14:58.085Z,26.93
2023-01-09T00:15:58.071Z,26.94
2023-01-09T00:16:58.084Z,26.97
2023-01-09T00:17:58.002Z,26.93
2023-01-09T00:18:57.955Z,26.97
2023-01-09T00:19:57.908Z,26.95
2023-01-09T00:20:57.871Z,26.96
2023-01-09T00:21:57.836Z,26.94
2023-01-09T00:22:57.788Z,26.94
2023-01-09T00:23:57.755Z,26.95
2023-01-09T00:24:57.707Z,26.97
2023-01-09T00:25:57.675Z,26.99
2023-01-09T00:26:57.627Z,26.98
2023-01-09T00:27:57.593Z,26.99
2023-01-09T00:28:57.552Z,26.99
2023-01-09T00:29:57.507Z,26.97
2023-01-09T00:30:57.528Z,26.97
2023-01-09T00:31:57.392Z,26.99
2023-01-09T00:32:57.370Z,27.00
2023-01-09T00:33:57.320Z,26.95
2023-01-09T00:34:57.264Z,26.97
2023-01-09T00:35:57.223Z,26.97
2023-01-09T00:36:57.181Z,26.99
2023-01-09T00:37:57.139Z,27.01
2023-01-09T00:38:57.098Z,27.00
2023-01-09T00:39:57.066Z,26.95
2023-01-09T00:40:57.049Z,27.00
2023-01-09T00:41:56.985Z,26.98
2023-01-09T00:42:56.944Z,27.00
2023-01-09T00:43:56.909Z,27.00
2023-01-09T00:44:56.870Z,27.04
2023-01-09T00:45:56.889Z,27.00
2023-01-09T00:46:56.772Z,26.98
2023-01-09T00:47:56.733Z,27.00
2023-01-09T00:48:56.703Z,27.00
2023-01-09T00:49:56.691Z,27.01
2023-01-09T00:50:56.625Z,27.01
2023-01-09T00:51:56.589Z,26.99
2023-01-09T00:52:56.565Z,27.01
2023-01-09T00:53:56.527Z,27.00
2023-01-09T00:54:56.486Z,27.04
2023-01-09T00:55:56.438Z,27.01
2023-01-09T00:56:56.405Z,27.06
2023-01-09T00:57:56.365Z,27.01
2023-01-09T00:58:56.331Z,26.98
2023-01-09T00:59:56.290Z,27.00
2023-01-09T01:00:56.347Z,27.01
2023-01-09T01:01:56.399Z,27.00
2023-01-09T01:02:56.195Z,27.00
2023-01-09T01:03:56.156Z,26.98
2023-01-09T01:04:56.109Z,27.03
2023-01-09T01:05:56.048Z,27.04
2023-01-09T01:06:56.029Z,27.06
2023-01-09T01:07:55.984Z,27.03
2023-01-09T01:08:55.984Z,26.97
2023-01-09T01:09:55.898Z,27.04
2023-01-09T01:10:55.868Z,26.97
2023-01-09T01:11:55.845Z,27.00
2023-01-09T01:12:55.779Z,26.98
2023-01-09T01:13:55.746Z,26.98
2023-01-09T01:14:55.677Z,27.04
2023-01-09T01:15:55.665Z,26.98
2023-01-09T01:16:55.743Z,26.97
2023-01-09T01:17:55.606Z,27.01
2023-01-09T01:18:55.538Z,27.00
2023-01-09T01:19:55.524Z,27.01
2023-01-09T01:20:55.446Z,27.00
2023-01-09T01:21:55.449Z,27.03
2023-01-09T01:22:55.382Z,26.97
2023-01-09T01:23:55.369Z,27.03
2023-01-09T01:24:55.287Z,27.03
2023-01-09T01:25:55.280Z,27.03
2023-01-09T01:26:55.241Z,27.07
2023-01-09T01:27:55.172Z,27.06
2023-01-09T01:28:55.135Z,27.06
2023-01-09T01:29:55.116Z,27.06
2023-01-09T01:30:55.120Z,27.03
2023-01-09T01:31:55.069Z,27.04
2023-01-09T01:32:54.989Z,26.98
2023-01-09T01:33:54.958Z,27.04
2023-01-09T01:34:54.917Z,27.07
2023-01-09T01:35:54.885Z,27.04
2023-01-09T01:36:54.843Z,27.04
2023-01-09T01:37:54.801Z,27.04
2023-01-09T01:38:54.754Z,27.04
2023-01-09T01:39:54.717Z,27.00
2023-01-09T01:40:54.695Z,27.03
2023-01-09T01:41:54.629Z,27.06
2023-01-09T01:42:54.604Z,27.03
2023-01-09T01:43:54.591Z,27.07
2023-01-09T01:44:54.510Z,27.04
2023-01-09T01:45:54.518Z,27.04
2023-01-09T01:46:54.429Z,27.06
2023-01-09T01:47:54.395Z,27.07
2023-01-09T01:48:54.335Z,27.05
2023-01-09T01:49:54.303Z,27.03
2023-01-09T01:50:54.216Z,27.03
2023-01-09T01:51:54.186Z,27.03
2023-01-09T01:52:54.181Z,27.03
2023-01-09T01:53:54.125Z,27.07
2023-01-09T01:54:54.047Z,27.06
2023-01-09T01:55:54.032Z,27.06
2023-01-09T01:56:53.960Z,27.03
2023-01-09T01:57:53.948Z,27.04
2023-01-09T01:58:53.892Z,27.01
2023-01-09T01:59:53.848Z,27.07
2023-01-09T02:00:53.902Z,27.06
2023-01-09T02:01:53.847Z,27.04
2023-01-09T02:02:53.763Z,27.04
2023-01-09T02:03:53.679Z,27.03
2023-01-09T02:04:53.642Z,27.03
2023-01-09T02:05:53.604Z,27.03
2023-01-09T02:06:53.581Z,27.01
2023-01-09T02:07:53.539Z,27.01
2023-01-09T02:08:53.479Z,27.06
2023-01-09T02:09:53.449Z,27.06
2023-01-09T02:10:53.417Z,27.07
2023-01-09T02:11:53.378Z,27.04
2023-01-09T02:12:53.353Z,27.05
2023-01-09T02:13:53.327Z,27.03
2023-01-09T02:14:53.256Z,27.06
2023-01-09T02:15:53.280Z,27.11
2023-01-09T02:16:53.180Z,27.08
2023-01-09T02:17:53.166Z,27.06
2023-01-09T02:18:53.124Z,27.05
2023-01-09T02:19:53.079Z,27.07
2023-01-09T02:20:53.035Z,27.06
2023-01-09T02:21:53.055Z,27.03
2023-01-09T02:22:52.977Z,27.04
2023-01-09T04:42:47.953Z,27.22
2023-01-09T04:45:47.934Z,27.22
2023-01-09T04:46:47.833Z,27.20
2023-01-09T04:47:47.793Z,27.18
2023-01-09T04:48:47.764Z,27.21
2023-01-09T04:49:47.720Z,27.22
2023-01-09T04:50:47.696Z,27.15
2023-01-09T04:51:47.641Z,27.21
2023-01-09T04:52:47.627Z,27.24
2023-01-09T04:53:47.597Z,27.24
2023-01-09T04:54:47.567Z,27.22
2023-01-09T04:55:47.522Z,27.20
2023-01-09T04:56:47.475Z,27.21
2023-01-09T04:57:47.443Z,27.24
2023-01-09T04:58:47.394Z,27.22
2023-01-09T04:59:47.365Z,27.21
2023-01-09T05:00:47.389Z,27.22
2023-01-09T05:01:47.464Z,27.18
2023-01-09T05:02:47.249Z,27.24
2023-01-09T05:03:47.199Z,27.22
2023-01-09T05:04:47.153Z,27.18
2023-01-09T05:05:47.120Z,27.24
2023-01-09T05:06:47.082Z,27.22
2023-01-09T05:07:47.039Z,27.22
2023-01-09T05:08:47.005Z,27.20
2023-01-09T05:09:46.956Z,27.24
2023-01-09T05:10:46.922Z,27.20
2023-01-09T05:11:46.895Z,27.21
2023-01-09T05:12:46.869Z,27.24
2023-01-09T05:13:46.820Z,27.21
2023-01-09T05:14:46.797Z,27.26
2023-01-09T05:15:46.753Z,27.22
2023-01-09T05:16:46.773Z,27.26
2023-01-09T05:17:46.691Z,27.22
2023-01-09T05:18:46.660Z,27.24
2023-01-09T05:19:46.615Z,27.24
2023-01-09T05:20:46.576Z,27.26
2023-01-09T05:21:46.565Z,27.25
2023-01-09T05:22:46.531Z,27.22
2023-01-09T05:23:46.475Z,27.22
2023-01-09T05:24:46.460Z,27.22
2023-01-09T05:25:46.428Z,27.20
2023-01-09T05:26:46.412Z,27.28
2023-01-09T05:27:46.357Z,27.27
2023-01-09T05:28:46.326Z,27.27
2023-01-09T05:29:46.280Z,27.26
2023-01-09T05:30:46.323Z,27.24
2023-01-09T05:31:46.356Z,27.26
2023-01-09T05:32:46.191Z,27.25
2023-01-09T05:33:46.144Z,27.24
2023-01-09T05:34:46.122Z,27.27
2023-01-09T05:35:46.090Z,27.24
2023-01-09T05:36:46.061Z,27.22
2023-01-09T05:37:46.007Z,27.24
2023-01-09T05:38:45.980Z,27.25
2023-01-09T05:39:45.963Z,27.20
2023-01-09T05:40:45.925Z,27.17
2023-01-09T05:41:45.892Z,27.24
2023-01-09T05:42:45.853Z,27.24
2023-01-09T05:43:45.807Z,27.28
2023-01-09T05:44:45.791Z,27.27
2023-01-09T05:45:45.784Z,27.26
2023-01-09T05:46:45.736Z,27.24
2023-01-09T05:47:45.676Z,27.24
2023-01-09T05:48:45.650Z,27.27
2023-01-09T05:49:45.597Z,27.22
2023-01-09T05:50:45.557Z,27.30
2023-01-09T05:51:45.533Z,27.25
2023-01-09T05:52:45.499Z,27.27
2023-01-09T05:53:45.439Z,27.27
2023-01-09T05:54:45.418Z,27.30
2023-01-09T05:55:45.377Z,27.20
2023-01-09T05:56:45.341Z,27.25
2023-01-09T05:57:45.289Z,27.22
2023-01-09T05:58:45.261Z,27.24
2023-01-09T05:59:45.220Z,27.24
2023-01-09T06:00:45.212Z,27.20
2023-01-09T06:01:45.186Z,27.22
2023-01-09T06:02:45.218Z,27.28
2023-01-09T06:03:45.087Z,27.31
2023-01-09T06:04:45.058Z,27.28
2023-01-09T06:05:45.022Z,27.25
2023-01-09T06:06:44.981Z,27.26
2023-01-09T06:07:44.985Z,27.24
2023-01-09T06:08:44.896Z,27.27
2023-01-09T06:09:44.878Z,27.27
2023-01-09T06:10:44.835Z,27.24
2023-01-09T06:11:44.814Z,27.24
2023-01-09T06:12:44.816Z,27.26
2023-01-09T06:13:44.762Z,27.27
2023-01-09T06:14:44.714Z,27.30
2023-01-09T06:15:44.694Z,27.34
2023-01-09T06:16:44.654Z,27.22
2023-01-09T06:17:44.642Z,27.27
2023-01-09T06:18:44.597Z,27.27
2023-01-09T06:19:44.556Z,27.26
2023-01-09T06:20:44.514Z,27.25
2023-01-09T06:21:44.529Z,27.31
2023-01-09T06:22:44.449Z,27.30
2023-01-09T06:23:44.394Z,27.25
2023-01-09T06:24:44.368Z,27.28
2023-01-09T06:25:44.360Z,27.29
2023-01-09T06:26:44.340Z,27.27
2023-01-09T06:27:44.281Z,27.25
2023-01-09T06:28:44.854Z,27.12
2023-01-09T06:29:44.194Z,27.18
2023-01-09T06:30:45.361Z,27.24
2023-01-09T06:31:44.230Z,27.40
2023-01-09T06:32:44.105Z,27.49
2023-01-09T06:33:44.077Z,27.53
2023-01-09T06:34:44.040Z,27.77
2023-01-09T06:35:44.008Z,28.23
2023-01-09T06:36:43.951Z,28.24
2023-01-09T06:37:43.927Z,28.31
2023-01-09T06:38:43.909Z,28.74
2023-01-09T06:39:43.898Z,28.93
2023-01-09T06:40:48.551Z,28.89
2023-01-09T06:41:46.029Z,29.26
2023-01-09T06:42:43.954Z,29.57
2023-01-09T06:43:43.745Z,29.95
2023-01-09T06:44:43.697Z,29.62
2023-01-09T06:45:43.701Z,30.21
2023-01-09T06:46:43.621Z,30.17
2023-01-09T06:47:43.626Z,30.31
2023-01-09T06:48:43.736Z,30.45
2023-01-09T06:49:43.556Z,30.22
2023-01-09T06:50:43.543Z,30.38
2023-01-09T06:51:43.470Z,30.26
2023-01-09T06:52:43.538Z,30.54
2023-01-09T06:53:43.408Z,30.78
2023-01-09T06:54:43.353Z,30.71
2023-01-09T06:55:43.331Z,30.93
2023-01-09T06:56:43.312Z,31.04
2023-01-09T06:57:43.264Z,30.88
2023-01-09T06:58:43.298Z,30.85
2023-01-09T06:59:43.256Z,31.19
2023-01-09T07:00:43.134Z,31.54
2023-01-09T07:01:43.225Z,31.44
2023-01-09T07:02:43.162Z,31.39
2023-01-09T07:03:43.131Z,31.51
2023-01-09T07:04:43.136Z,31.65
2023-01-09T07:05:42.976Z,31.92
2023-01-09T07:06:43.031Z,31.85
2023-01-09T07:07:43.066Z,31.72
2023-01-09T07:44:44.253Z,30.44
2023-01-09T07:45:44.525Z,29.86
2023-01-09T07:46:45.221Z,29.56
2023-01-09T07:47:46.086Z,28.95
2023-01-09T07:48:43.857Z,27.32
2023-01-09T08:22:41.272Z,24.52
2023-01-09T08:23:41.258Z,24.55
2023-01-09T08:24:41.259Z,24.49
2023-01-09T08:25:41.237Z,24.46
2023-01-09T08:26:41.260Z,24.43
2023-01-09T08:27:41.209Z,24.55
2023-01-09T08:28:41.203Z,24.54
2023-01-09T08:29:41.205Z,24.79
2023-01-09T08:31:41.175Z,24.76
2023-01-09T08:32:41.126Z,24.73
2023-01-09T08:33:41.128Z,24.60
2023-01-09T08:34:41.213Z,24.74
2023-01-09T08:35:41.118Z,24.81
2023-01-09T08:36:41.118Z,25.17
2023-01-09T08:37:41.082Z,25.66
2023-01-09T08:38:41.079Z,25.65
2023-01-09T08:39:41.073Z,26.07
2023-01-09T08:40:41.073Z,26.72
2023-01-09T08:41:41.010Z,26.12
2023-01-09T08:42:41.041Z,26.11
2023-01-09T08:43:40.995Z,26.66
2023-01-09T08:44:40.995Z,27.63
2023-01-09T08:45:41.041Z,28.09
2023-01-09T08:46:40.964Z,28.45
2023-01-09T08:47:40.954Z,29.00
2023-01-09T08:48:40.956Z,29.22
2023-01-09T08:50:40.920Z,29.58
2023-01-09T08:51:40.886Z,29.88
2023-01-09T08:52:40.847Z,29.86
2023-01-09T08:53:40.834Z,29.78
2023-01-09T08:54:40.794Z,29.82
2023-01-09T08:55:40.794Z,29.68
2023-01-09T08:56:40.750Z,29.82
2023-01-09T08:57:40.736Z,29.47
2023-01-09T08:58:40.702Z,29.13
2023-01-09T08:59:40.700Z,28.95
2023-01-09T09:00:40.629Z,28.75
2023-01-09T09:01:40.702Z,28.13
2023-01-09T09:02:40.595Z,28.37
2023-01-09T09:03:40.532Z,28.15
2023-01-09T09:05:40.478Z,28.02
2023-01-09T09:06:40.466Z,27.67
2023-01-09T09:07:40.440Z,27.73
2023-01-09T09:08:40.428Z,27.79
2023-01-09T09:09:40.343Z,27.62
2023-01-09T09:10:40.325Z,27.66
2023-01-09T09:11:40.284Z,27.42
2023-01-09T09:12:40.261Z,27.39
2023-01-09T09:13:40.252Z,27.41
2023-01-09T09:14:40.190Z,27.35
2023-01-09T09:15:40.196Z,27.00
2023-01-09T09:16:40.125Z,27.16
2023-01-09T09:17:40.091Z,27.07
2023-01-09T09:18:40.078Z,26.22
2023-01-09T09:19:40.034Z,26.08
2023-01-09T09:20:40.064Z,25.17
2023-01-09T09:21:40.037Z,24.84
2023-01-09T09:22:39.964Z,25.11
2023-01-09T09:23:39.955Z,24.85
2023-01-09T09:24:39.930Z,24.91
2023-01-09T09:25:39.911Z,25.01
2023-01-09T09:26:39.857Z,25.11
2023-01-09T09:27:39.827Z,25.34
2023-01-09T09:28:39.789Z,25.31
2023-01-09T09:29:39.818Z,25.22
2023-01-09T09:30:39.744Z,25.21
2023-01-09T09:31:39.749Z,25.51
2023-01-09T09:32:39.730Z,25.19
2023-01-09T09:33:39.663Z,25.46
2023-01-09T09:34:39.639Z,24.72
2023-01-09T09:35:39.608Z,25.41
2023-01-09T09:36:39.797Z,25.16
2023-01-09T09:37:39.594Z,25.04
2023-01-09T09:38:39.520Z,25.73
2023-01-09T11:56:36.793Z,32.32
2023-01-09T12:00:36.626Z,32.87
2023-01-09T12:01:36.634Z,32.88
2023-01-09T12:02:36.577Z,33.04
2023-01-09T12:03:36.537Z,32.97
2023-01-09T12:04:36.481Z,32.95
2023-01-09T12:05:36.448Z,33.32
2023-01-09T12:06:36.390Z,33.24
2023-01-09T12:07:36.364Z,33.08
2023-01-09T12:08:36.366Z,33.29
2023-01-09T12:09:36.278Z,33.20
2023-01-09T12:10:36.266Z,32.95
2023-01-09T12:11:36.221Z,33.57
2023-01-09T12:12:36.193Z,33.39
2023-01-09T12:13:36.117Z,33.11
2023-01-09T12:14:36.119Z,32.98
2023-01-09T12:15:36.059Z,33.16
2023-01-09T12:16:36.091Z,33.40
2023-01-09T12:17:35.978Z,33.55
2023-01-09T12:18:35.947Z,33.49
2023-01-09T12:19:35.917Z,33.60
2023-01-09T12:20:35.841Z,33.45
2023-01-09T12:21:35.867Z,33.38
2023-01-09T12:22:35.783Z,33.24
2023-01-09T12:23:35.743Z,33.41
2023-01-09T12:24:35.684Z,33.41
2023-01-09T12:25:35.700Z,33.40
2023-01-09T12:26:35.605Z,33.50
2023-01-09T12:27:35.604Z,33.08
2023-01-09T12:28:35.588Z,32.73
2023-01-09T12:29:35.571Z,32.61
2023-01-09T12:30:35.460Z,32.21
2023-01-09T12:31:36.914Z,32.13
2023-01-09T12:32:35.358Z,31.23
2023-01-09T12:33:35.311Z,31.01
2023-01-09T12:34:35.278Z,30.95
2023-01-09T12:35:35.242Z,30.56
2023-01-09T12:36:35.249Z,30.71
2023-01-09T12:37:35.151Z,30.52
2023-01-09T12:38:35.097Z,30.83
2023-01-09T12:39:35.070Z,30.83
2023-01-09T12:40:35.023Z,30.64
2023-01-09T12:41:34.991Z,30.45
2023-01-09T12:42:34.976Z,30.33
2023-01-09T12:43:34.916Z,30.17
2023-01-09T12:44:36.417Z,30.07
2023-01-09T12:45:34.919Z,29.99
2023-01-09T12:46:34.799Z,30.04
2023-01-09T12:47:34.759Z,29.98
2023-01-09T12:48:34.719Z,29.95
2023-01-09T12:49:34.689Z,29.93
2023-01-09T12:50:34.632Z,29.83
2023-01-09T12:51:34.588Z,29.75
2023-01-09T12:52:34.567Z,29.73
2023-01-09T12:53:34.515Z,29.70
2023-01-09T12:54:34.464Z,29.69
2023-01-09T12:55:34.406Z,29.75
2023-01-09T12:56:34.372Z,29.86
2023-01-09T12:57:34.373Z,30.13
2023-01-09T12:58:34.285Z,30.00
2023-01-09T12:59:34.266Z,29.69
2023-01-09T13:00:34.202Z,29.57
2023-01-09T13:01:34.196Z,29.57
2023-01-09T13:02:34.262Z,29.61
2023-01-09T13:03:34.089Z,29.45
2023-01-09T13:04:34.065Z,29.51
2023-01-09T13:05:34.026Z,29.44
2023-01-09T13:06:34.005Z,29.32
2023-01-09T13:07:33.943Z,29.26
2023-01-09T13:08:33.915Z,29.15
2023-01-09T13:09:33.901Z,29.29
2023-01-09T13:10:33.845Z,29.07
2023-01-09T13:11:33.827Z,29.07
2023-01-09T13:12:33.777Z,29.04
2023-01-09T13:13:33.756Z,29.01
2023-01-09T13:14:33.710Z,29.04
2023-01-09T13:15:33.689Z,30.08
2023-01-09T13:16:33.669Z,30.09
2023-01-09T13:17:33.613Z,30.54
2023-01-09T13:18:33.577Z,30.83
2023-01-09T13:19:33.585Z,31.82
2023-01-09T13:20:33.521Z,32.59
2023-01-09T13:21:33.483Z,32.46
2023-01-09T13:22:33.432Z,32.64
2023-01-09T13:23:33.392Z,32.60
2023-01-09T13:24:33.382Z,32.78
2023-01-09T13:25:33.362Z,32.66
2023-01-09T13:26:33.289Z,32.34
2023-01-09T13:27:33.279Z,32.44
2023-01-09T13:28:33.227Z,32.38
2023-01-09T13:29:33.194Z,31.98
2023-01-09T13:30:33.177Z,32.01
2023-01-09T13:31:33.211Z,31.95
2023-01-09T13:32:33.084Z,32.51
2023-01-09T13:33:33.061Z,32.64
2023-01-09T13:34:33.021Z,32.85
2023-01-09T13:35:32.992Z,33.85
2023-01-09T13:36:32.986Z,33.30
2023-01-09T15:13:29.377Z,32.20
2023-01-09T15:14:29.310Z,32.04
2023-01-09T15:15:29.291Z,31.99
2023-01-09T15:16:29.330Z,31.71
2023-01-09T15:17:29.203Z,31.48
2023-01-09T15:18:29.184Z,31.15
2023-01-09T15:19:29.113Z,31.02
2023-01-09T15:20:29.091Z,31.03
2023-01-09T15:21:29.060Z,30.94
2023-01-09T15:22:29.002Z,30.53
2023-01-09T15:23:28.956Z,30.83
2023-01-09T15:24:28.936Z,30.96
2023-01-09T15:25:38.023Z,30.96
2023-01-09T15:26:29.845Z,30.85
2023-01-09T15:27:28.822Z,30.50
2023-01-09T15:28:28.767Z,30.64
2023-01-09T15:29:28.725Z,30.67
2023-01-09T15:30:28.735Z,30.45
2023-01-09T15:31:28.696Z,30.62
2023-01-09T15:32:28.669Z,30.56
2023-01-09T15:33:28.589Z,30.56
2023-01-09T15:34:28.556Z,30.33
2023-01-09T15:35:28.529Z,30.47
2023-01-09T15:36:28.487Z,30.46
2023-01-09T15:37:28.457Z,30.45
2023-01-09T15:38:28.424Z,30.36
2023-01-09T15:39:28.390Z,30.31
2023-01-09T15:40:28.346Z,30.24
2023-01-09T15:41:28.338Z,30.24
2023-01-09T15:42:28.320Z,30.21
2023-01-09T15:43:28.256Z,30.13
2023-01-09T15:44:28.246Z,30.24
2023-01-09T15:45:28.220Z,30.05
2023-01-09T15:46:28.164Z,30.02
2023-01-09T15:47:28.150Z,30.00
2023-01-09T15:48:28.117Z,30.17
2023-01-09T15:49:28.075Z,30.16
2023-01-09T15:50:28.033Z,30.12
2023-01-09T15:51:27.991Z,30.13
2023-01-09T15:52:27.980Z,30.19
2023-01-09T15:53:27.935Z,30.23
2023-01-09T15:54:27.909Z,30.20
2023-01-09T15:55:27.856Z,30.20
2023-01-09T15:56:27.860Z,30.21
2023-01-09T15:57:27.844Z,30.21
2023-01-09T15:58:27.796Z,30.23
2023-01-09T15:59:27.741Z,30.21
2023-01-09T16:00:27.718Z,30.24
2023-01-09T16:01:27.743Z,30.18
2023-01-09T16:02:27.692Z,30.29
2023-01-09T16:03:27.634Z,30.25
2023-01-09T16:04:27.591Z,30.26
2023-01-09T16:05:27.546Z,30.24
2023-01-09T16:06:27.518Z,30.27
2023-01-09T16:07:27.479Z,30.24
2023-01-09T16:08:27.461Z,30.22
2023-01-09T16:09:27.428Z,30.24
2023-01-09T16:10:27.385Z,30.28
2023-01-09T16:11:27.356Z,30.18
2023-01-09T16:12:27.323Z,30.22
2023-01-09T16:13:27.307Z,30.26
2023-01-09T16:14:27.256Z,30.22
2023-01-09T16:15:27.220Z,30.22
2023-01-09T16:16:27.205Z,30.22
2023-01-09T16:17:27.141Z,30.26
2023-01-09T16:18:27.121Z,30.21
2023-01-09T16:19:27.077Z,30.22
2023-01-09T16:20:27.052Z,30.22
2023-01-09T16:21:27.034Z,30.23
2023-01-09T16:22:26.982Z,30.22
2023-01-09T16:23:26.977Z,30.28
2023-01-09T16:24:26.908Z,30.23
2023-01-09T16:25:26.859Z,30.22
2023-01-09T16:26:26.853Z,30.20
2023-01-09T16:27:26.839Z,30.21
2023-01-09T16:28:26.935Z,30.21
2023-01-09T16:29:26.731Z,30.20
2023-01-09T16:30:26.705Z,30.23
2023-01-09T16:31:26.678Z,30.24
2023-01-09T16:32:26.627Z,30.21
2023-01-09T16:33:26.585Z,30.20
2023-01-09T16:34:26.567Z,30.24
2023-01-09T16:35:26.549Z,30.23
2023-01-09T16:36:26.512Z,30.23
2023-01-09T16:37:26.452Z,30.21
2023-01-09T16:38:26.473Z,30.20
2023-01-09T16:39:26.417Z,30.23
2023-01-09T16:40:26.386Z,30.21
2023-01-09T16:41:26.344Z,30.20
2023-01-09T16:42:26.318Z,30.18
2023-01-09T16:43:26.300Z,30.20
2023-01-09T16:44:26.257Z,30.21
2023-01-09T16:45:26.232Z,30.21
2023-01-09T16:46:26.222Z,30.21
2023-01-09T16:47:26.164Z,30.18
2023-01-09T16:48:26.165Z,30.14
2023-01-09T16:49:26.091Z,30.16
2023-01-09T16:50:26.087Z,30.17
2023-01-09T16:51:26.036Z,30.12
2023-01-09T16:52:26.005Z,30.14
2023-01-09T16:53:26.059Z,30.18
2023-01-09T16:54:25.939Z,30.13
2023-01-09T16:55:25.909Z,30.16
2023-01-09T16:56:25.890Z,30.12
2023-01-09T16:57:25.857Z,30.15
2023-01-09T16:58:25.835Z,30.14
2023-01-09T16:59:25.839Z,30.15
2023-01-09T17:00:25.769Z,30.16
2023-01-09T17:01:25.762Z,30.12
2023-01-09T17:02:25.793Z,30.16
2023-01-09T17:03:25.660Z,30.16
2023-01-09T17:04:25.657Z,30.13
2023-01-09T17:05:25.606Z,30.20
2023-01-09T17:06:25.545Z,30.15
2023-01-09T17:07:25.545Z,30.15
2023-01-09T17:08:25.505Z,30.09
2023-01-09T17:09:27.380Z,30.13
2023-01-09T17:10:25.429Z,30.12
2023-01-09T17:11:25.385Z,30.10
2023-01-09T17:12:25.340Z,30.10
2023-01-09T17:13:25.312Z,30.12
2023-01-09T17:14:25.304Z,30.07
2023-01-09T17:15:25.230Z,30.13
2023-01-09T17:16:25.290Z,30.13
2023-01-09T17:17:25.159Z,30.12
2023-01-09T17:18:25.128Z,30.12
2023-01-09T17:19:25.083Z,30.10
2023-01-09T17:20:25.026Z,30.11
2023-01-09T17:21:24.992Z,30.12
2023-01-09T17:22:24.958Z,30.10
2023-01-09T17:23:24.995Z,30.11
2023-01-09T17:24:24.905Z,30.12
2023-01-09T17:25:24.831Z,30.07
2023-01-09T17:26:24.798Z,30.11
2023-01-09T17:27:24.777Z,30.10
2023-01-09T17:28:24.734Z,30.11
2023-01-09T17:29:24.691Z,30.09
2023-01-09T17:30:24.671Z,30.10
2023-01-09T17:31:24.678Z,30.07
2023-01-09T17:32:24.609Z,30.11
2023-01-09T17:33:24.581Z,30.11
2023-01-09T17:34:24.534Z,30.07
2023-01-09T17:35:24.496Z,30.11
2023-01-09T17:36:24.508Z,30.04
2023-01-09T17:37:24.511Z,30.11
2023-01-09T17:38:24.547Z,30.04
2023-01-09T17:39:24.588Z,30.05
2023-01-09T17:40:24.598Z,30.04
2023-01-09T17:41:24.607Z,30.08
2023-01-09T17:42:24.642Z,30.04
2023-01-09T17:43:24.673Z,30.09
2023-01-09T17:44:24.693Z,30.05
2023-01-09T17:45:24.738Z,30.05
2023-01-09T17:46:24.727Z,30.07
2023-01-09T17:47:24.739Z,30.07
2023-01-09T17:48:24.757Z,30.07
2023-01-09T17:49:24.795Z,30.05
2023-01-09T17:50:24.840Z,30.05
2023-01-09T17:51:24.823Z,30.02
2023-01-09T17:52:24.836Z,30.05
2023-01-09T17:53:24.864Z,30.07
2023-01-09T17:54:24.878Z,30.04
2023-01-09T17:55:25.199Z,30.07
2023-01-09T17:56:24.903Z,30.04
2023-01-09T17:57:24.914Z,30.04
2023-01-09T17:58:24.951Z,30.05
2023-01-09T17:59:26.884Z,30.07
2023-01-09T18:00:24.983Z,30.05
2023-01-09T18:01:24.969Z,30.02
2023-01-09T18:02:24.979Z,29.99
2023-01-09T18:03:24.870Z,30.05
2023-01-09T18:04:24.847Z,30.01
2023-01-09T18:05:24.827Z,30.05
2023-01-09T18:06:24.779Z,30.04
2023-01-09T18:07:24.765Z,30.02
2023-01-09T18:08:24.787Z,30.01
2023-01-09T18:09:24.803Z,29.99
2023-01-09T18:10:24.865Z,29.99
2023-01-09T18:11:24.868Z,29.99
2023-01-09T18:12:24.883Z,29.99
2023-01-09T18:13:24.903Z,30.01
2023-01-09T18:14:24.925Z,30.02
2023-01-09T18:15:24.948Z,30.01
2023-01-09T18:16:25.151Z,30.01
2023-01-09T18:17:24.994Z,30.01
2023-01-09T18:18:25.006Z,29.99
2023-01-09T18:19:25.039Z,30.02
2023-01-09T18:20:25.060Z,29.96
2023-01-09T18:21:25.081Z,29.99
2023-01-09T18:22:25.114Z,30.01
2023-01-09T18:23:25.150Z,29.98
2023-01-09T18:24:25.184Z,29.98
2023-01-09T18:25:25.218Z,29.99
2023-01-09T18:26:25.257Z,29.99
2023-01-09T18:27:25.279Z,30.00
2023-01-09T18:28:25.294Z,29.99
2023-01-09T18:29:25.356Z,30.01
2023-01-09T18:30:25.361Z,30.02
2023-01-09T18:31:25.441Z,29.98
2023-01-09T18:32:25.402Z,29.99
2023-01-09T18:33:25.445Z,29.99
2023-01-09T18:34:25.458Z,29.99
2023-01-09T18:35:25.514Z,29.99
2023-01-09T18:36:25.526Z,29.93
2023-01-09T18:37:25.536Z,30.02
2023-01-09T18:38:25.590Z,29.95
2023-01-09T18:39:25.603Z,29.98
2023-01-09T18:40:25.647Z,29.96
2023-01-09T18:41:25.705Z,29.96
2023-01-09T18:42:25.688Z,29.96
2023-01-09T18:43:25.717Z,29.96
2023-01-09T18:44:25.744Z,29.98
2023-01-09T18:45:25.822Z,29.98
2023-01-09T18:46:25.851Z,29.98
2023-01-09T18:47:25.819Z,29.96
2023-01-09T18:48:25.849Z,29.93
2023-01-09T18:49:25.818Z,29.98
2023-01-09T18:50:25.788Z,29.98
2023-01-09T18:51:25.766Z,29.92
2023-01-09T18:52:25.719Z,29.92
2023-01-09T18:53:25.692Z,29.92
2023-01-09T18:54:25.644Z,29.96
2023-01-09T18:55:25.665Z,29.95
2023-01-09T18:56:25.607Z,29.96
2023-01-09T18:57:25.562Z,29.93
2023-01-09T18:58:25.539Z,29.91
2023-01-09T18:59:25.492Z,29.96
2023-01-09T19:00:25.478Z,29.92
2023-01-09T19:01:25.529Z,29.92
2023-01-09T19:02:25.389Z,29.94
2023-01-09T19:03:25.400Z,29.92
2023-01-09T19:04:25.459Z,29.92
2023-01-09T19:05:25.311Z,29.92
2023-01-09T19:06:25.272Z,29.93
2023-01-09T19:07:25.254Z,29.92
2023-01-09T19:08:25.205Z,29.90
2023-01-09T19:09:25.176Z,29.89
2023-01-09T19:10:25.142Z,29.91
2023-01-09T19:11:25.144Z,29.89
2023-01-09T19:12:25.085Z,29.90
2023-01-09T19:13:25.063Z,29.89
2023-01-09T19:14:25.023Z,29.90
2023-01-09T19:15:24.999Z,29.85
2023-01-09T19:16:25.034Z,29.87
2023-01-09T19:17:24.923Z,29.89
2023-01-09T19:18:24.884Z,29.93
2023-01-09T19:19:24.859Z,29.89
2023-01-09T19:20:24.824Z,29.89
2023-01-09T19:21:24.794Z,29.92
2023-01-09T19:22:24.740Z,29.89
2023-01-09T19:23:24.819Z,29.89
2023-01-09T19:24:24.692Z,29.90
2023-01-09T19:25:24.662Z,29.90
2023-01-09T19:26:24.665Z,29.90
2023-01-09T19:27:24.566Z,29.86
2023-01-09T19:28:24.530Z,29.90
2023-01-09T19:29:24.509Z,29.90
2023-01-09T19:30:24.529Z,29.89
2023-01-09T19:31:24.734Z,29.90
2023-01-09T19:32:24.384Z,29.83
2023-01-09T19:33:24.372Z,29.87
2023-01-09T19:34:24.316Z,29.87
2023-01-09T19:35:24.280Z,29.92
2023-01-09T19:36:24.239Z,29.91
2023-01-09T19:37:24.239Z,29.87
2023-01-09T19:38:24.176Z,29.87
2023-01-09T19:39:24.128Z,29.87
2023-01-09T19:40:24.110Z,29.84
2023-01-09T19:41:24.074Z,29.87
2023-01-09T19:42:24.047Z,29.87
2023-01-09T19:43:24.016Z,29.86
2023-01-09T19:44:23.981Z,29.84
2023-01-09T19:45:23.938Z,29.83
2023-01-09T19:46:23.972Z,29.86
2023-01-09T19:47:23.857Z,29.86
2023-01-09T19:48:23.816Z,29.83
2023-01-09T19:49:23.797Z,29.90
2023-01-09T19:50:23.757Z,29.86
2023-01-09T19:51:23.717Z,29.87
2023-01-09T19:52:23.694Z,29.89
2023-01-09T19:53:23.650Z,29.90
2023-01-09T19:54:23.622Z,29.89
2023-01-09T19:55:23.572Z,29.87
2023-01-09T19:56:23.538Z,29.89
2023-01-09T19:57:23.523Z,29.87
2023-01-09T19:58:23.471Z,29.83
2023-01-09T19:59:23.443Z,29.89
2023-01-09T20:00:23.402Z,29.82
2023-01-09T20:01:23.428Z,29.88
2023-01-09T20:02:23.371Z,29.91
2023-01-09T20:03:25.397Z,29.86
2023-01-09T20:04:23.293Z,29.83
2023-01-09T20:05:23.254Z,29.86
2023-01-09T20:06:23.232Z,29.86
2023-01-09T20:07:23.209Z,29.86
2023-01-09T20:08:23.161Z,29.84
2023-01-09T20:09:23.131Z,29.81
2023-01-09T20:10:23.101Z,29.86
2023-01-09T20:11:23.079Z,29.84
2023-01-09T20:12:23.068Z,29.87
2023-01-09T20:13:23.019Z,29.84
2023-01-09T20:14:23.015Z,29.86
2023-01-09T20:15:23.041Z,29.83
2023-01-09T20:16:23.084Z,29.86
2023-01-09T20:17:23.105Z,29.84
2023-01-09T20:18:23.116Z,29.86
2023-01-09T20:19:23.128Z,29.86
2023-01-09T20:20:23.178Z,29.83
2023-01-09T20:21:24.796Z,29.86